Terminal Aerodrome Forecast
Issued by NWS

Home | Current Version | Previous Version | Text Only | Print | Product List | Glossary Off
Versions: 1 2 3 4 5 6 7 8 9 10 11 12 13 14 15 16

000
FTUS43 KOAX 202300
TAFCDR
TAF
KCDR 202338Z 2100/2124 27009KT P6SM SCT100
     FM210200 VRB03KT P6SM BKN150
     FM211800 23007KT P6SM SCT150=

USA.gov is the U.S. government's official web portal to all federal, state and local government web resources and services.